Terminal Aerodrome Forecast
Issued by NWS Newport/Morehead City, NC

Home | Current Version | Previous Version | Graphics & Text | Print | Product List | Glossary On
Versions: 1 2 3 4 5 6 7 8 9 10 11 12 13 14
272
FTUS42 KMHX 210529
TAFEWN
TAF
KEWN 210529Z 2106/2206 21006KT P6SM BKN090
     FM211400 24010KT P6SM SCT100
     FM212300 VRB03KT P6SM BKN080
     FM220400 05004KT 5SM -SHRA SCT020 BKN040=

USA.gov is the U.S. government's official web portal to all federal, state and local government web resources and services.